Time;durP1;ratioP1;P1;durP2;ratioP2;P2;SDS_P1;SDS_P2;PMS_P1;PMS_P2;Temp;Humidity;BMP_temperature;BMP_pressure;BME280_temperature;BME280_humidity;BME280_pressure;Samples;Min_cycle;Max_cycle;Signal;HPM_P1;HPM_P2
2024/04/12 00:01:48;;;;;;;3.13;1.00;;;;;;;9.44;49.48;97133.66;5429648;26;20651;-78
2024/04/12 00:04:20;;;;;;;2.93;1.30;;;;;;;9.42;49.71;97136.34;5430237;26;20247;-79
2024/04/12 00:06:52;;;;;;;3.60;1.30;;;;;;;9.40;49.27;97138.22;5432351;26;20648;-78
2024/04/12 00:09:17;;;;;;;3.43;1.40;;;;;;;9.35;49.78;97130.75;5430549;26;21123;-79
2024/04/12 00:11:48;;;;;;;4.13;1.30;;;;;;;9.39;49.51;97130.56;5443352;26;20230;-79
2024/04/12 00:14:14;;;;;;;2.90;1.10;;;;;;;9.36;49.75;97122.06;5428746;26;20370;-78
2024/04/12 00:16:43;;;;;;;3.47;1.40;;;;;;;9.37;49.26;97117.69;5403886;26;20254;-80
2024/04/12 00:19:18;;;;;;;3.83;1.50;;;;;;;9.36;48.92;97118.59;5426963;26;20704;-80
2024/04/12 00:21:46;;;;;;;5.43;1.30;;;;;;;9.38;48.71;97121.13;5441004;26;20233;-79
2024/04/12 00:24:13;;;;;;;3.33;1.20;;;;;;;9.40;48.61;97122.66;5404872;26;20992;-79
2024/04/12 00:26:48;;;;;;;4.83;1.57;;;;;;;9.44;48.51;97128.47;5432191;26;20244;-78
2024/04/12 00:29:30;;;;;;;2.77;1.20;;;;;;;9.50;48.45;97125.47;5431951;26;20306;-80
2024/04/12 00:32:05;;;;;;;2.97;1.50;;;;;;;9.50;48.02;97128.06;5396302;26;20245;-78
2024/04/12 00:34:38;;;;;;;4.37;1.20;;;;;;;9.60;47.89;97126.53;5439172;26;20282;-78
2024/04/12 00:37:07;;;;;;;2.77;1.27;;;;;;;9.70;47.01;97124.13;5434864;26;20847;-78
2024/04/12 00:39:39;;;;;;;5.43;1.53;;;;;;;9.69;47.38;97130.25;5432268;26;20231;-80
2024/04/12 00:42:08;;;;;;;3.70;1.40;;;;;;;9.67;47.57;97122.59;5431326;26;20787;-78
2024/04/12 00:44:35;;;;;;;3.77;1.23;;;;;;;9.68;47.49;97126.84;5386280;26;20276;-79
2024/04/12 00:47:04;;;;;;;2.10;1.20;;;;;;;9.71;47.32;97130.97;5442941;26;21357;-79
2024/04/12 00:49:30;;;;;;;6.47;1.83;;;;;;;9.75;47.22;97122.06;5408564;26;20246;-78
2024/04/12 00:52:01;;;;;;;4.57;1.30;;;;;;;9.73;47.72;97122.19;5432474;26;20704;-78
2024/04/12 00:54:28;;;;;;;3.47;1.40;;;;;;;9.71;47.74;97112.81;5400979;26;20716;-77
2024/04/12 00:56:56;;;;;;;4.07;1.40;;;;;;;9.73;47.32;97116.16;5434412;26;20781;-79
2024/04/12 00:59:23;;;;;;;3.00;1.30;;;;;;;9.72;47.56;97119.66;5436915;26;20243;-78
2024/04/12 01:01:48;;;;;;;3.47;1.30;;;;;;;9.67;47.84;97120.00;5436864;26;20346;-80
2024/04/12 01:04:19;;;;;;;6.07;1.47;;;;;;;9.60;47.86;97116.16;5425238;26;20244;-78
2024/04/12 01:06:45;;;;;;;3.63;1.53;;;;;;;9.59;47.86;97124.88;5402399;26;20644;-79
2024/04/12 01:09:13;;;;;;;3.73;1.67;;;;;;;9.50;48.43;97117.69;5424704;26;20244;-78
2024/04/12 01:11:39;;;;;;;4.83;1.33;;;;;;;9.51;48.27;97108.97;5418620;26;20238;-78
2024/04/12 01:14:05;;;;;;;2.73;1.50;;;;;;;9.51;48.36;97114.16;5420805;26;20392;-78
2024/04/12 01:16:30;;;;;;;4.37;1.37;;;;;;;9.52;48.50;97116.66;5401390;26;20712;-79
2024/04/12 01:18:56;;;;;;;2.67;1.40;;;;;;;9.55;48.26;97111.28;5426270;26;20719;-80
2024/04/12 01:21:24;;;;;;;3.03;1.40;;;;;;;9.57;48.60;97118.97;5428485;26;20870;-79
2024/04/12 01:23:53;;;;;;;5.73;1.33;;;;;;;9.60;48.29;97113.56;5449223;26;20250;-79
2024/04/12 01:26:20;;;;;;;3.20;1.40;;;;;;;9.57;48.46;97117.19;5428839;26;20249;-77
2024/04/12 01:28:46;;;;;;;3.90;1.33;;;;;;;9.63;48.61;97108.19;5406380;26;20575;-79
2024/04/12 01:31:15;;;;;;;4.00;1.60;;;;;;;9.64;48.39;97113.25;5435601;26;20260;-78
2024/04/12 01:33:42;;;;;;;3.77;1.27;;;;;;;9.49;49.07;97110.84;5396299;26;20244;-80
2024/04/12 01:36:10;;;;;;;4.77;1.70;;;;;;;9.56;48.46;97112.13;5388255;26;20314;-80
2024/04/12 01:38:39;;;;;;;2.40;1.47;;;;;;;9.58;48.42;97103.28;5437802;26;20235;-80
2024/04/12 01:41:05;;;;;;;3.10;1.40;;;;;;;9.60;48.19;97108.38;5430273;26;20845;-80
2024/04/12 01:43:36;;;;;;;6.37;1.80;;;;;;;9.57;48.44;97103.41;5428835;26;20235;-80
2024/04/12 01:46:04;;;;;;;3.40;1.30;;;;;;;9.55;48.60;97102.69;5393158;26;20525;-80
2024/04/12 01:48:33;;;;;;;5.90;1.10;;;;;;;9.58;48.60;97102.47;5431616;26;20242;-79
2024/04/12 01:51:01;;;;;;;5.70;1.50;;;;;;;9.57;48.81;97109.41;5429457;26;20544;-79
2024/04/12 01:53:27;;;;;;;6.70;1.50;;;;;;;9.58;48.80;97111.06;5402070;26;20251;-79
2024/04/12 01:55:52;;;;;;;4.40;1.60;;;;;;;9.59;48.72;97106.72;5398978;26;20269;-79
2024/04/12 01:58:20;;;;;;;4.77;1.40;;;;;;;9.64;48.76;97108.06;5447107;26;20306;-79
2024/04/12 02:00:46;;;;;;;2.53;1.20;;;;;;;9.61;48.78;97105.66;5437620;26;20297;-80
2024/04/12 02:03:13;;;;;;;2.17;1.20;;;;;;;9.64;48.91;97112.44;5427246;26;20266;-79
2024/04/12 02:05:38;;;;;;;2.47;1.30;;;;;;;9.69;48.64;97112.94;5433542;26;20274;-80
2024/04/12 02:08:08;;;;;;;7.73;2.67;;;;;;;9.65;49.03;97101.13;5425001;26;20232;-79
2024/04/12 02:10:41;;;;;;;3.33;1.30;;;;;;;9.63;48.81;97111.59;5428627;26;20246;-80
2024/04/12 02:13:07;;;;;;;2.20;1.60;;;;;;;9.73;49.08;97104.03;5398939;26;20326;-80
2024/04/12 02:15:32;;;;;;;5.80;1.43;;;;;;;9.75;49.05;97098.72;5406793;26;20241;-80
2024/04/12 02:17:58;;;;;;;5.83;2.10;;;;;;;9.77;48.84;97102.88;5429837;26;20231;-79
2024/04/12 02:20:36;;;;;;;3.43;1.50;;;;;;;9.74;49.31;97105.69;5429413;26;20386;-80
2024/04/12 02:23:05;;;;;;;4.50;1.30;;;;;;;9.71;49.14;97111.06;5416535;26;20235;-79
2024/04/12 02:25:35;;;;;;;3.27;1.53;;;;;;;9.73;49.25;97109.22;5426267;26;20341;-79
2024/04/12 02:28:07;;;;;;;4.43;1.30;;;;;;;9.66;49.59;97113.16;5428319;26;20280;-79
2024/04/12 02:30:43;;;;;;;4.30;1.50;;;;;;;9.64;50.14;97105.47;5397267;26;20342;-78
2024/04/12 02:33:09;;;;;;;5.83;1.57;;;;;;;9.69;49.80;97101.72;5389196;26;20325;-78
2024/04/12 02:35:41;;;;;;;5.60;1.67;;;;;;;9.68;50.01;97106.09;5424901;26;20437;-78
2024/04/12 02:38:06;;;;;;;3.77;1.50;;;;;;;9.65;50.65;97098.53;5395153;26;20281;-79
2024/04/12 02:40:31;;;;;;;4.20;1.40;;;;;;;9.61;50.55;97104.84;5427266;26;20244;-79
2024/04/12 02:42:58;;;;;;;5.70;1.47;;;;;;;9.54;51.17;97101.00;5432647;26;20241;-78
2024/04/12 02:45:27;;;;;;;5.77;1.40;;;;;;;9.48;51.18;97098.81;5424440;26;20243;-79
2024/04/12 02:47:53;;;;;;;6.97;1.47;;;;;;;9.41;51.59;97103.59;5442260;26;20246;-79
2024/04/12 02:50:18;;;;;;;4.43;1.33;;;;;;;9.40;52.12;97101.94;5399588;26;20723;-79
2024/04/12 02:52:43;;;;;;;3.03;1.80;;;;;;;9.30;52.39;97101.72;5400466;26;20247;-80
2024/04/12 02:55:15;;;;;;;2.10;1.50;;;;;;;9.26;52.87;97100.25;5398534;26;20277;-79
2024/04/12 02:57:44;;;;;;;4.27;1.80;;;;;;;9.21;53.10;97106.69;5395767;26;20630;-79
2024/04/12 03:00:21;;;;;;;4.67;1.40;;;;;;;9.19;53.09;97109.38;5436969;26;20253;-79
2024/04/12 03:02:51;;;;;;;6.10;1.53;;;;;;;9.23;53.05;97113.41;5432876;26;20246;-79
2024/04/12 03:05:17;;;;;;;3.13;1.57;;;;;;;9.08;53.51;97117.84;5429392;26;20250;-78
2024/04/12 03:07:45;;;;;;;2.37;1.47;;;;;;;9.13;52.98;97120.13;5435969;26;20323;-79
2024/04/12 03:10:10;;;;;;;6.70;1.83;;;;;;;9.15;53.13;97112.25;5430763;26;20344;-79
2024/04/12 03:12:36;;;;;;;2.13;1.47;;;;;;;9.11;53.17;97110.81;5396956;26;20243;-80
2024/04/12 03:15:04;;;;;;;5.37;1.77;;;;;;;9.11;53.47;97114.22;5428256;26;20319;-80
2024/04/12 03:17:29;;;;;;;5.13;1.80;;;;;;;9.08;52.85;97119.59;5395275;26;20240;-78
2024/04/12 03:19:55;;;;;;;5.60;1.80;;;;;;;9.09;53.28;97118.66;5427544;26;20341;-79
2024/04/12 03:22:21;;;;;;;8.77;2.13;;;;;;;9.00;53.48;97124.44;5442846;26;20347;-80
2024/04/12 03:24:46;;;;;;;4.50;1.67;;;;;;;9.09;53.13;97121.25;5438927;26;20250;-80
2024/04/12 03:27:13;;;;;;;6.87;2.27;;;;;;;9.04;53.42;97118.97;5399484;26;20723;-78
2024/04/12 03:29:39;;;;;;;3.63;1.90;;;;;;;9.15;53.09;97123.44;5435526;26;20286;-80
2024/04/12 03:32:07;;;;;;;3.50;1.83;;;;;;;9.10;52.85;97115.16;5431261;26;20234;-79
2024/04/12 03:34:35;;;;;;;5.17;2.30;;;;;;;9.22;52.77;97122.13;5410624;26;20267;-80
2024/04/12 03:37:23;;;;;;;5.17;2.37;;;;;;;9.23;52.37;97118.59;5435606;26;20245;-79
2024/04/12 03:39:47;;;;;;;2.93;2.00;;;;;;;9.22;52.68;97123.88;5429628;26;20328;-79
2024/04/12 03:42:18;;;;;;;5.57;2.10;;;;;;;9.21;52.61;97123.06;5402804;26;20334;-79
2024/04/12 03:44:43;;;;;;;3.67;2.20;;;;;;;9.21;52.79;97117.88;5430076;26;20235;-79
2024/04/12 03:47:08;;;;;;;4.53;1.80;;;;;;;9.31;52.73;97116.34;5445550;26;20312;-79
2024/04/12 03:49:38;;;;;;;8.37;2.30;;;;;;;9.26;52.75;97120.16;5398995;26;20299;-79
2024/04/12 03:52:05;;;;;;;8.40;2.17;;;;;;;9.28;52.69;97116.53;5408563;26;20241;-80
2024/04/12 03:54:30;;;;;;;6.97;2.60;;;;;;;9.25;52.27;97121.91;5429557;26;20235;-79
2024/04/12 03:56:57;;;;;;;4.70;2.20;;;;;;;9.39;52.24;97115.00;5397214;26;20273;-79
2024/04/12 03:59:30;;;;;;;5.73;3.30;;;;;;;9.39;52.44;97125.38;5442918;26;20243;-80
2024/04/12 04:01:56;;;;;;;5.53;2.70;;;;;;;9.41;52.26;97115.72;5425853;26;20238;-79
2024/04/12 04:04:25;;;;;;;5.83;2.53;;;;;;;9.42;52.45;97104.41;5401452;26;20951;-78
2024/04/12 04:06:55;;;;;;;6.87;2.77;;;;;;;9.35;52.52;97103.97;5432832;26;20286;-79
2024/04/12 04:09:26;;;;;;;3.67;2.03;;;;;;;9.40;52.32;97101.09;5427458;26;20243;-79
2024/04/12 04:11:55;;;;;;;5.10;2.10;;;;;;;9.41;51.90;97106.19;5434518;26;20743;-79
2024/04/12 04:14:25;;;;;;;3.73;2.20;;;;;;;9.45;51.95;97107.63;5396963;26;20301;-79
2024/04/12 04:16:52;;;;;;;3.47;1.93;;;;;;;9.47;51.82;97105.78;5430895;26;20346;-79
2024/04/12 04:19:19;;;;;;;4.30;2.10;;;;;;;9.38;52.24;97108.16;5437042;26;20803;-79
2024/04/12 04:21:45;;;;;;;4.23;2.27;;;;;;;9.43;52.17;97100.88;5428174;26;20234;-79
2024/04/12 04:24:11;;;;;;;6.50;2.10;;;;;;;9.45;52.37;97104.19;5445587;26;20234;-79
2024/04/12 04:26:36;;;;;;;6.10;2.53;;;;;;;9.48;52.24;97104.00;5423442;26;20306;-79
2024/04/12 04:29:09;;;;;;;4.93;2.53;;;;;;;9.43;52.59;97100.88;5422334;26;20249;-78
2024/04/12 04:31:44;;;;;;;5.93;2.80;;;;;;;9.59;51.71;97104.13;5431030;26;20231;-78
2024/04/12 04:34:12;;;;;;;5.30;2.67;;;;;;;9.53;52.11;97104.50;5431960;26;20235;-79
2024/04/12 04:36:38;;;;;;;3.93;2.10;;;;;;;9.59;51.83;97101.53;5430205;26;20269;-79
2024/04/12 04:39:04;;;;;;;4.57;2.47;;;;;;;9.52;52.18;97098.50;5430400;26;20277;-79
2024/04/12 04:41:32;;;;;;;6.30;2.13;;;;;;;9.68;52.24;97093.13;5422783;26;20279;-79
2024/04/12 04:43:59;;;;;;;6.13;2.27;;;;;;;9.77;51.57;97097.69;5426878;26;20234;-78
2024/04/12 04:46:27;;;;;;;5.60;2.60;;;;;;;9.81;51.32;97095.72;5436729;26;20314;-79
2024/04/12 04:48:56;;;;;;;6.20;2.30;;;;;;;9.89;51.44;97099.44;5418468;26;20265;-80
2024/04/12 04:51:24;;;;;;;5.27;2.37;;;;;;;9.84;51.41;97092.91;5427177;26;20238;-79
2024/04/12 04:53:52;;;;;;;6.13;2.43;;;;;;;9.95;51.41;97098.19;5426103;26;20285;-79
2024/04/12 04:56:30;;;;;;;3.27;2.00;;;;;;;10.09;50.74;97094.63;5428047;26;20304;-78
2024/04/12 04:58:56;;;;;;;8.30;2.10;;;;;;;10.07;50.91;97096.50;5422109;26;20269;-79
2024/04/12 05:01:24;;;;;;;5.80;2.30;;;;;;;10.12;51.11;97100.44;5391092;26;20262;-79
2024/04/12 05:03:52;;;;;;;5.53;2.80;;;;;;;10.19;51.07;97109.47;5425784;26;20297;-79
2024/04/12 05:06:24;;;;;;;4.17;2.27;;;;;;;10.30;50.72;97100.94;5431963;26;20234;-78
2024/04/12 05:08:53;;;;;;;5.57;2.63;;;;;;;10.50;50.04;97100.34;5432990;26;20580;-79
2024/04/12 05:11:19;;;;;;;5.50;2.53;;;;;;;10.47;49.82;97103.19;5427592;26;20234;-78
2024/04/12 05:13:49;;;;;;;6.03;2.40;;;;;;;10.71;49.58;97105.81;5386046;26;20282;-79
2024/04/12 05:16:19;;;;;;;3.93;2.20;;;;;;;10.82;49.42;97099.81;5425166;26;20234;-78
2024/04/12 05:18:48;;;;;;;5.10;2.47;;;;;;;11.11;48.84;97102.06;5421445;26;20285;-78
2024/04/12 05:21:17;;;;;;;3.53;2.10;;;;;;;11.34;48.21;97103.78;5421618;26;20286;-79
2024/04/12 05:23:43;;;;;;;5.00;2.43;;;;;;;11.26;48.30;97104.34;5406999;26;20232;-78
2024/04/12 05:26:09;;;;;;;6.17;2.47;;;;;;;11.45;48.02;97098.59;5395361;26;20736;-79
2024/04/12 05:28:35;;;;;;;7.87;3.40;;;;;;;11.53;47.76;97106.66;5400387;26;20237;-78
2024/04/12 05:31:01;;;;;;;4.97;2.87;;;;;;;11.72;47.52;97115.69;5432898;26;20238;-79
2024/04/12 05:33:29;;;;;;;4.17;2.60;;;;;;;11.96;46.84;97107.81;5427717;26;20281;-78
2024/04/12 05:35:55;;;;;;;4.20;2.60;;;;;;;12.11;46.91;97104.03;5435872;26;20243;-79
2024/04/12 05:38:21;;;;;;;7.40;3.17;;;;;;;12.09;46.55;97098.94;5420525;26;20878;-77
2024/04/12 05:40:52;;;;;;;6.17;2.63;;;;;;;12.19;46.55;97104.25;5418982;26;20359;-78
2024/04/12 05:43:18;;;;;;;5.20;2.67;;;;;;;12.30;46.11;97101.66;5421082;26;20231;-78
2024/04/12 05:45:49;;;;;;;6.40;3.77;;;;;;;12.18;46.58;97108.63;5428578;26;20334;-78
2024/04/12 05:48:18;;;;;;;9.77;3.07;;;;;;;12.33;45.88;97105.78;5398053;26;20264;-77
2024/04/12 05:50:48;;;;;;;6.10;2.93;;;;;;;12.33;46.23;97111.00;5418919;26;20579;-78
2024/04/12 05:53:17;;;;;;;7.57;2.77;;;;;;;12.48;45.93;97117.63;5427820;26;20238;-79
2024/04/12 05:55:51;;;;;;;4.87;2.30;;;;;;;12.40;46.27;97114.78;5425987;26;20226;-79
2024/04/12 05:58:18;;;;;;;6.73;2.80;;;;;;;12.65;45.18;97116.28;5431721;26;20851;-78
2024/04/12 06:00:47;;;;;;;7.77;3.30;;;;;;;12.66;45.53;97128.34;5420006;26;20278;-78
2024/04/12 06:03:15;;;;;;;7.20;3.07;;;;;;;12.86;44.99;97122.38;5424880;26;20787;-78
2024/04/12 06:05:47;;;;;;;5.50;2.87;;;;;;;12.95;45.34;97134.66;5393685;26;20278;-79
2024/04/12 06:08:12;;;;;;;6.23;2.47;;;;;;;12.39;47.78;97126.97;5425920;26;20349;-78
2024/04/12 06:10:38;;;;;;;3.80;1.70;;;;;;;11.98;48.95;97127.56;5427634;26;20603;-79
2024/04/12 06:13:06;;;;;;;2.93;1.87;;;;;;;12.05;49.02;97136.56;5420983;26;20239;-79
2024/04/12 06:15:36;;;;;;;6.80;2.73;;;;;;;12.28;48.67;97133.97;5409468;26;20347;-78
2024/04/12 06:18:05;;;;;;;5.27;2.23;;;;;;;12.46;47.79;97149.00;5406202;26;20605;-78
2024/04/12 06:20:31;;;;;;;7.07;2.43;;;;;;;12.59;47.14;97145.41;5412078;26;20236;-79
2024/04/12 06:23:06;;;;;;;4.50;2.63;;;;;;;12.84;46.86;97152.13;5416142;26;20744;-79
2024/04/12 06:25:38;;;;;;;3.73;2.67;;;;;;;12.87;46.60;97152.69;5386617;26;20780;-78
2024/04/12 06:28:11;;;;;;;5.80;2.60;;;;;;;12.94;46.41;97148.66;5430852;26;20246;-80
2024/04/12 06:30:41;;;;;;;4.70;2.30;;;;;;;13.07;46.07;97160.69;5418802;26;20239;-79
2024/04/12 06:33:06;;;;;;;5.90;2.57;;;;;;;13.10;45.88;97155.25;5431156;26;20234;-79
2024/04/12 06:35:32;;;;;;;4.73;2.27;;;;;;;13.18;45.60;97153.69;5391427;26;20686;-79
2024/04/12 06:37:58;;;;;;;7.23;2.70;;;;;;;13.25;45.20;97157.50;5428731;26;20290;-79
2024/04/12 06:40:28;;;;;;;7.30;2.73;;;;;;;13.30;45.47;97154.50;5433056;26;20616;-79
2024/04/12 06:43:05;;;;;;;5.37;2.17;;;;;;;13.47;45.43;97153.94;5431542;26;20231;-78
2024/04/12 06:45:41;;;;;;;5.70;2.57;;;;;;;13.62;45.07;97144.03;5435638;26;20246;-78
2024/04/12 06:48:10;;;;;;;5.73;2.20;;;;;;;13.75;44.59;97142.03;5394583;26;20255;-78
2024/04/12 06:50:36;;;;;;;7.57;2.23;;;;;;;13.84;43.67;97140.44;5403427;26;20243;-78
2024/04/12 06:53:08;;;;;;;5.87;2.40;;;;;;;13.93;43.83;97146.66;5427770;26;20352;-78
2024/04/12 06:55:45;;;;;;;4.00;1.70;;;;;;;14.06;43.16;97142.91;5426895;26;20243;-80
2024/04/12 06:58:11;;;;;;;4.40;1.60;;;;;;;14.08;41.76;97134.91;5434867;26;20281;-77
2024/04/12 07:00:37;;;;;;;5.93;1.67;;;;;;;14.13;41.04;97130.97;5429079;26;20239;-78
2024/04/12 07:03:07;;;;;;;4.13;1.83;;;;;;;14.17;41.29;97134.97;5402372;26;20241;-78
2024/04/12 07:05:33;;;;;;;3.13;1.60;;;;;;;14.27;41.16;97121.94;5432574;26;20241;-79
2024/04/12 07:07:58;;;;;;;6.23;1.70;;;;;;;14.31;40.90;97130.31;5428365;26;20849;-79
2024/04/12 07:10:27;;;;;;;7.47;2.03;;;;;;;14.42;40.65;97131.06;5405302;26;20287;-79
2024/04/12 07:12:55;;;;;;;6.53;2.37;;;;;;;14.55;40.77;97138.69;5428766;26;20277;-78
2024/04/12 07:15:21;;;;;;;4.20;1.80;;;;;;;14.75;40.62;97142.19;5399317;26;20242;-79
2024/04/12 07:17:47;;;;;;;6.97;2.47;;;;;;;14.76;40.23;97153.50;5406361;26;20280;-79
2024/04/12 07:20:22;;;;;;;4.43;1.77;;;;;;;14.80;40.29;97153.06;5441608;26;20577;-79
2024/04/12 07:22:49;;;;;;;6.00;1.70;;;;;;;14.95;40.59;97162.19;5444109;26;20620;-79
2024/04/12 07:25:15;;;;;;;4.03;2.00;;;;;;;15.09;40.12;97162.75;5437440;26;20230;-79
2024/04/12 07:27:41;;;;;;;3.40;1.90;;;;;;;15.00;38.73;97175.69;5399686;26;20242;-79
2024/04/12 07:30:08;;;;;;;4.73;1.63;;;;;;;15.19;38.31;97169.63;5430995;26;20341;-79
2024/04/12 07:32:35;;;;;;;2.87;1.90;;;;;;;15.34;38.63;97162.22;5407616;26;20268;-79
2024/04/12 07:35:09;;;;;;;2.30;1.50;;;;;;;15.42;38.93;97159.72;5437026;26;20346;-79
2024/04/12 07:37:36;;;;;;;5.27;1.67;;;;;;;15.40;39.83;97163.47;5429119;26;20254;-79
2024/04/12 07:40:21;;;;;;;5.40;1.80;;;;;;;15.61;39.47;97165.97;5434645;26;20329;-80
2024/04/12 07:42:47;;;;;;;6.30;1.80;;;;;;;15.58;39.06;97165.25;5448066;26;20242;-79
2024/04/12 07:45:17;;;;;;;4.00;1.73;;;;;;;15.59;38.03;97156.41;5422594;26;20329;-79
2024/04/12 07:50:45;;;;;;;3.80;1.53;;;;;;;15.62;38.13;97157.94;5384011;26;20290;-79
2024/04/12 07:53:15;;;;;;;5.47;2.07;;;;;;;15.51;38.54;97158.06;5352738;26;20270;-77
2024/04/12 07:55:41;;;;;;;6.07;2.10;;;;;;;15.68;38.13;97151.34;5410147;26;20230;-81
2024/04/12 07:58:08;;;;;;;5.17;1.90;;;;;;;15.76;39.05;97151.47;5350429;26;20251;-79
2024/04/12 08:00:42;;;;;;;7.17;1.90;;;;;;;15.75;39.28;97147.19;5374078;26;20236;-79
2024/04/12 08:03:07;;;;;;;2.07;1.40;;;;;;;15.97;39.34;97143.41;5378260;26;20282;-79
2024/04/12 08:05:42;;;;;;;4.07;1.60;;;;;;;16.12;38.65;97139.38;5411303;26;20290;-79
2024/04/12 08:08:14;;;;;;;7.60;2.20;;;;;;;16.07;38.32;97131.94;5381049;26;20235;-79
2024/04/12 08:10:41;;;;;;;5.80;2.20;;;;;;;16.01;38.41;97135.13;5401038;26;20291;-78
2024/04/12 08:13:10;;;;;;;4.13;2.50;;;;;;;16.07;38.69;97133.72;5406697;26;20316;-78
2024/04/12 08:15:40;;;;;;;5.77;2.27;;;;;;;16.39;38.73;97135.97;5385333;26;20234;-78
2024/04/12 08:18:06;;;;;;;4.23;1.90;;;;;;;16.40;37.95;97134.97;5379553;26;20727;-79
2024/04/12 08:20:39;;;;;;;6.70;2.10;;;;;;;16.52;38.63;97144.31;5351472;26;20300;-79
2024/04/12 08:23:07;;;;;;;6.27;2.03;;;;;;;16.79;38.21;97145.31;5380584;26;20231;-79
2024/04/12 08:25:39;;;;;;;7.97;2.57;;;;;;;16.79;36.95;97140.06;5385689;26;20243;-78
2024/04/12 08:28:06;;;;;;;8.73;2.80;;;;;;;16.29;38.19;97143.03;5430375;26;20234;-79
2024/04/12 08:30:33;;;;;;;6.00;2.35;;;;;;;16.11;38.41;97146.41;5429787;26;20239;-79
2024/04/12 08:33:02;;;;;;;6.20;2.85;;;;;;;16.67;38.08;97142.03;5440444;26;20235;-79
2024/04/12 08:35:29;;;;;;;3.45;2.35;;;;;;;16.45;37.46;97151.13;5441993;26;20231;-79
2024/04/12 08:37:54;;;;;;;5.23;2.53;;;;;;;16.46;37.62;97157.19;5432091;26;20610;-79
2024/04/12 08:40:21;;;;;;;10.90;3.00;;;;;;;16.55;37.84;97149.28;5429610;26;20238;-79
2024/04/12 08:42:47;;;;;;;6.47;2.73;;;;;;;16.48;37.88;97157.84;5402961;26;20271;-80
2024/04/12 08:45:17;;;;;;;7.73;3.07;;;;;;;16.81;37.09;97151.25;5417428;26;20232;-79
2024/04/12 08:47:51;;;;;;;9.15;3.30;;;;;;;16.95;36.73;97159.41;5390698;26;20779;-79
2024/04/12 08:50:23;;;;;;;7.40;2.93;;;;;;;16.87;36.20;97155.88;5439277;26;20247;-79
2024/04/12 08:52:52;;;;;;;5.80;2.60;;;;;;;16.87;36.36;97161.13;5433382;26;20226;-79
2024/04/12 08:55:23;;;;;;;8.07;2.77;;;;;;;16.66;37.48;97170.06;5405460;26;20242;-80
2024/04/12 08:57:56;;;;;;;7.30;2.57;;;;;;;16.94;37.82;97164.81;5392078;26;20256;-79
2024/04/12 09:00:28;;;;;;;8.45;2.50;;;;;;;16.94;37.50;97154.31;5388848;26;20346;-80
2024/04/12 09:03:02;;;;;;;6.93;2.92;;;;;;;17.08;37.13;97159.06;5432204;26;20234;-79
2024/04/12 09:05:42;;;;;;;8.15;2.22;;;;;;;17.00;36.97;97158.97;5398384;26;20254;-79
2024/04/12 09:08:07;;;;;;;4.68;3.17;;;;;;;16.98;36.25;97163.56;5397135;26;20243;-79
2024/04/12 09:10:36;;;;;;;9.02;2.97;;;;;;;16.95;37.13;97164.66;5431139;26;20239;-80
2024/04/12 09:13:08;;;;;;;12.32;3.22;;;;;;;16.75;37.65;97165.75;5441661;26;20631;-79
2024/04/12 09:15:43;;;;;;;6.95;2.88;;;;;;;17.26;37.35;97165.16;5443438;26;20239;-79
2024/04/12 09:18:15;;;;;;;7.65;3.60;;;;;;;17.26;36.32;97170.41;5430785;26;20288;-80
2024/04/12 09:20:44;;;;;;;5.85;2.50;;;;;;;17.19;36.74;97158.03;5422652;26;20821;-79
2024/04/12 09:23:16;;;;;;;8.00;2.92;;;;;;;17.19;35.78;97164.09;5439276;26;20292;-79
2024/04/12 09:25:55;;;;;;;5.80;3.08;;;;;;;17.56;36.55;97176.25;5406190;26;20330;-80
2024/04/12 09:28:22;;;;;;;6.70;3.70;;;;;;;17.73;36.55;97177.22;5398504;26;20314;-79
2024/04/12 09:33:33;;;;;;;6.85;3.00;;;;;;;17.78;35.95;97170.56;5435910;26;20276;-80
2024/04/12 09:36:13;;;;;;;6.75;2.88;;;;;;;18.05;37.24;97172.22;5389050;26;20729;-79
2024/04/12 09:38:40;;;;;;;7.10;2.90;;;;;;;17.84;37.39;97179.59;5422097;26;20273;-79
2024/04/12 09:41:31;;;;;;;6.68;3.05;;;;;;;17.72;36.08;97176.41;5399232;26;20296;-79
2024/04/12 09:44:03;;;;;;;5.50;2.58;;;;;;;17.72;36.03;97176.41;5432387;26;20624;-79
2024/04/12 10:37:22;;;;;;;7.32;2.30;;;;;;;17.87;36.51;97168.00;5389567;26;20290;-79
2024/04/12 10:39:33;;;;;;;5.57;2.00;;;;;;;19.74;33.25;97134.41;5429796;26;20273;-79
2024/04/12 10:42:00;;;;;;;3.80;1.88;;;;;;;19.67;33.71;97133.44;5422716;26;20241;-79
2024/04/12 10:44:26;;;;;;;7.53;2.40;;;;;;;19.84;32.99;97135.06;5396654;26;20634;-80
2024/04/12 10:46:54;;;;;;;7.03;2.13;;;;;;;19.83;33.26;97133.41;5395740;26;20273;-79
2024/04/12 10:49:21;;;;;;;6.72;2.30;;;;;;;20.14;34.55;97137.97;5418171;26;20297;-82
2024/04/12 10:51:47;;;;;;;5.22;2.10;;;;;;;19.89;34.01;97143.31;5424823;26;20318;-80
2024/04/12 10:54:23;;;;;;;9.57;2.00;;;;;;;19.32;34.07;97143.25;5428215;26;20280;-79
2024/04/12 10:56:49;;;;;;;6.35;1.90;;;;;;;19.95;33.27;97131.25;5421548;26;20347;-80
2024/04/12 10:59:26;;;;;;;4.88;2.00;;;;;;;20.17;33.83;97130.56;5433063;26;20610;-80
2024/04/12 11:01:54;;;;;;;5.97;1.92;;;;;;;20.42;34.25;97123.38;5406221;26;20265;-81
2024/04/12 11:04:20;;;;;;;4.55;1.98;;;;;;;20.59;33.73;97119.72;5425330;26;20236;-80
2024/04/12 11:06:45;;;;;;;6.90;2.10;;;;;;;20.34;33.46;97115.50;5430196;26;20235;-80
2024/04/12 11:09:14;;;;;;;3.55;1.83;;;;;;;20.52;34.29;97112.66;5439376;26;20246;-80
2024/04/12 11:11:44;;;;;;;5.82;1.83;;;;;;;19.76;34.01;97116.63;5397495;26;20335;-80
2024/04/12 11:14:27;;;;;;;2.58;1.80;;;;;;;19.72;34.22;97116.13;5435068;26;21040;-80
2024/04/12 11:33:32;;;;;;;7.00;2.08;;;;;;;20.20;34.24;97097.72;5416083;26;20298;-80
2024/04/12 11:36:10;;;;;;;5.95;1.90;;;;;;;20.18;34.17;97102.34;5388597;26;20254;-79
2024/04/12 11:38:37;;;;;;;5.75;1.88;;;;;;;20.21;33.64;97102.84;5426405;26;20238;-79
2024/04/12 11:41:04;;;;;;;5.85;2.28;;;;;;;20.32;33.40;97101.66;5421953;26;20767;-79
2024/04/12 11:43:32;;;;;;;6.43;2.13;;;;;;;20.49;35.27;97105.06;5426940;26;20285;-78
2024/04/12 11:45:57;;;;;;;4.43;2.15;;;;;;;20.01;33.46;97097.13;5424045;26;20277;-79
2024/04/12 11:48:28;;;;;;;9.13;2.35;;;;;;;20.32;33.01;97089.28;5426397;26;20286;-79
2024/04/12 11:50:54;;;;;;;6.00;2.38;;;;;;;20.53;32.88;97088.72;5433339;26;20243;-79
2024/04/12 11:53:20;;;;;;;4.78;2.50;;;;;;;19.81;32.67;97101.13;5425166;26;20746;-78
2024/04/12 11:55:48;;;;;;;5.43;2.40;;;;;;;19.94;33.55;97088.25;5427081;26;20713;-79
2024/04/12 11:58:13;;;;;;;5.00;2.53;;;;;;;19.48;34.07;97087.94;5382439;26;20292;-78
2024/04/12 12:00:40;;;;;;;8.40;3.03;;;;;;;19.91;33.55;97078.03;5430051;26;20301;-79
2024/04/12 12:03:05;;;;;;;5.80;2.20;;;;;;;20.24;32.80;97088.50;5405790;26;20331;-79
2024/04/12 12:05:31;;;;;;;3.60;2.20;;;;;;;20.57;33.54;97082.09;5419312;26;20251;-79
2024/04/12 12:07:59;;;;;;;4.25;2.40;;;;;;;20.47;33.34;97068.28;5426653;26;20231;-79
2024/04/12 12:10:25;;;;;;;4.53;1.77;;;;;;;20.75;33.74;97073.09;5389798;26;20251;-81
2024/04/12 12:12:51;;;;;;;5.25;2.22;;;;;;;20.87;32.84;97066.44;5421852;26;20274;-81
2024/04/12 12:15:19;;;;;;;4.82;2.35;;;;;;;21.02;33.14;97072.59;5427940;26;20235;-80
2024/04/12 12:17:47;;;;;;;4.85;2.05;;;;;;;20.75;31.85;97071.28;5427184;26;20616;-80
2024/04/12 12:20:18;;;;;;;10.18;2.67;;;;;;;20.96;31.77;97068.03;5427347;26;20870;-79
2024/04/12 12:22:43;;;;;;;5.72;2.75;;;;;;;21.15;32.58;97069.38;5395949;26;20752;-80
2024/04/12 12:25:09;;;;;;;4.60;2.10;;;;;;;21.08;31.88;97071.91;5425855;26;20270;-80
2024/04/12 12:27:34;;;;;;;3.83;2.13;;;;;;;21.37;33.11;97076.47;5431401;26;20247;-80
2024/04/12 12:30:13;;;;;;;3.42;1.88;;;;;;;21.51;32.64;97076.72;5428807;26;20656;-81
2024/04/12 12:32:40;;;;;;;4.28;1.85;;;;;;;21.48;31.64;97076.06;5438965;26;20847;-81
2024/04/12 12:35:06;;;;;;;9.18;2.10;;;;;;;21.38;31.94;97080.78;5394956;26;20595;-82
2024/04/12 12:37:32;;;;;;;7.57;2.10;;;;;;;21.54;31.87;97069.22;5429159;26;20841;-79
2024/04/12 12:40:01;;;;;;;6.80;2.08;;;;;;;21.33;33.20;97077.03;5433180;26;20254;-80
2024/04/12 12:42:26;;;;;;;5.20;2.10;;;;;;;21.08;31.83;97074.53;5433425;26;20231;-80
2024/04/12 12:44:52;;;;;;;4.95;2.25;;;;;;;21.17;32.47;97070.84;5434504;26;20289;-81
2024/04/12 12:47:20;;;;;;;6.45;2.70;;;;;;;20.83;32.94;97070.41;5418254;26;20622;-80
2024/04/12 12:49:53;;;;;;;3.90;2.47;;;;;;;21.15;32.24;97072.03;5398809;26;20251;-80
2024/04/12 12:52:18;;;;;;;8.88;2.78;;;;;;;20.96;31.97;97073.31;5402562;26;20751;-80
2024/04/12 12:54:44;;;;;;;6.32;2.38;;;;;;;21.06;32.96;97063.31;5404990;26;20230;-80
2024/04/12 12:57:11;;;;;;;7.18;2.50;;;;;;;21.06;31.71;97068.63;5422910;26;20230;-80